默认 日期 大小 文件数 浏览量 最新下载 xml
jackass磁力链接相关资源由用户搜索指令自动获取,结果来源于网络,本站不存储任何资料,亦不承担任何责任,请于24小时内删除,搜索到1259个磁力,用时2ms。
    ... gore.avi": 367677440, "jackass.presents.gumball.3000.dvdrip-gore ... fragment.avi": 729042944, "jackass.the.movie.2002.unrated.dvdrip ... .DVDRip.XviD-CULTXviD": {"jackass.the.movie.extra.segments. ... cultxvid.avi": 243802112, "jackass.the.movie.extra.segments.dvdrip ...
创建时间: 2022-06-23 15:59:37 大小:3.86 GB 文件数量:21 热度:10 最近下载:2025-09-10 23:11:03
    {"Zapraszamy na ex-torrenty.org.url": 112, "Jackass.4.5.2022.PL.WEB-DL.XviD-K83.avi": 734462560}
创建时间: 2022-06-24 13:33:49 大小:700.44 MB 文件数量:2 热度:7 最近下载:2025-04-08 02:25:01
    {"README! IMPORTANT!.zip": 38534, "Poster - Jackass Presents Bad Grandpa.jpg": 18430, "Torrent Downloaded From ExtraTorrent.cc.txt": 338, "Jackass Grandpa Bad Grandpa (2013) DVDRip XViD-ENG.avi": 843352701}
创建时间: 2022-06-29 22:34:41 大小:804.34 MB 文件数量:4 热度:5 最近下载:2025-03-21 17:06:02
    {"Zapraszamy na ex-torrenty.org.url": 112, "Jackass.4.5.2022.PL.720p.WEB-DL.XviD.DD5.1-K83.avi": 2479897864}
创建时间: 2022-07-01 23:53:03 大小:2.31 GB 文件数量:2 热度:8 最近下载:2025-04-08 02:24:02
    {"Amores Perros Swesub DVDrip XviD -The Jackass.CD01.avi": 732762112, "Amores Perros Swesub DVDrip XviD -The Jackass.CD02.avi": 733499392}
创建时间: 2022-07-02 09:36:15 大小:1.37 GB 文件数量:2 热度:5 最近下载:2025-02-07 06:03:05
    {"Jackass.3.5.2011.BRRip.x264-RioN.MKV": 1468297314, "Jackass.3.5.2011.BRRip.x264-RioN.nfo": 5764}
创建时间: 2022-07-04 13:10:25 大小:1.37 GB 文件数量:2 热度:8 最近下载:2025-04-13 08:48:01
    ... From ExtraTorrent.com.txt": 353, "Jackass 3D [2010] UnRated DVDRip AAC ... - STAR143.mp4": 347383639, "Jackass 3D [2010] UnRated DVDRip AAC ... - STAR143 - Sample.mp4": 3511584, "Jackass 3D [2010] UnRated DVDRip AAC ...
创建时间: 2022-07-04 20:48:07 大小:335.46 MB 文件数量:5 热度:4 最近下载:2025-03-31 11:43:03
    {"www.Speed.Cd.txt": 47, "Speed.cd read me .txt": 47, "Jackass.3.5.2011.720p.BRRiP.XViD.AC3-FLAWL3SS.avi": 2960107520, "Jackass.3.5.2011.720p.BRRiP.XViD.AC3-FLAWL3SS.nfo": 2476, "Jackass.3.5.2011.720p.BRRiP.XViD.AC3-FLAWL3SS.sample.avi": 58968064}
创建时间: 2022-07-08 09:39:21 大小:2.81 GB 文件数量:5 热度:5 最近下载:2025-04-17 21:42:02
    ... 蛋搞怪秀2.Jackass.Number.Two.2006.DVD-RMVB ... 蛋搞怪秀2.Jackass.Number.Two.2006.DVD-RMVB ...
创建时间: 2022-07-10 21:31:15 大小:546.87 MB 文件数量:7 热度:28 最近下载:2025-10-15 22:52:03
    {"README! IMPORTANT!.zip": 38534, "Poster - Jackass Presents Bad Grandpa.jpg": 18430, "Torrent Downloaded From ExtraTorrent.cc.txt": 338, "Jackass Grandpa Bad Grandpa (2013) DVDRip XViD-ENG.avi": 843352701}
创建时间: 2022-07-17 07:25:16 大小:804.34 MB 文件数量:4 热度:5 最近下载:2025-01-05 17:28:01
    ... , "蠢蛋搞怪秀.Jackass.The.Movie.2002.DVD-RMVB ...
创建时间: 2022-07-18 23:43:52 大小:486.79 MB 文件数量:6 热度:25 最近下载:2025-10-15 22:52:02
    {"Importante Leeme!.vbs": 213, "Jackass.4.5.2022.720p-dual-lat.mkv": 1991255305, "Descargar Películas, Series y Animes...url": 50}
创建时间: 2022-07-23 23:43:17 大小:1.85 GB 文件数量:3 热度:11 最近下载:2025-04-08 02:25:01
    {"RARBG.txt": 30, "RARBG_DO_NOT_MIRROR.exe": 99, "shark.week.2022.jackass.shark.week.2.0.1080p.web.h264-b2b.mkv": 5031897391, "shark.week.2022.jackass.shark.week.2.0.1080p.web.h264-b2b.nfo": 5803}
创建时间: 2022-08-01 18:28:31 大小:4.69 GB 文件数量:4 热度:6 最近下载:2025-09-21 13:05:02
    {"RARBG.txt": 30, "RARBG_DO_NOT_MIRROR.exe": 99, "Jackass.The.Movie.2002.WEBRip.x264-ION10.mp4": 867709975}
创建时间: 2022-08-02 21:58:30 大小:827.51 MB 文件数量:3 热度:8 最近下载:2025-01-05 13:18:05
    {"RARBG.txt": 31, "Jackass.The.Movie.2002.1080p.iT.WEB-DL.DD.5.1.H.264-MiON.mkv": 6388730404}
创建时间: 2022-08-03 19:13:28 大小:5.95 GB 文件数量:2 热度:5 最近下载:2025-01-21 17:35:03
    {"Sample": {"sample-shark.week.2022.jackass.shark.week.2.0.1080p. ... .txt": 718, "shark.week.2022.jackass.shark.week.2.0.1080p ... .mkv": 5031897391, "shark.week.2022.jackass.shark.week.2.0.1080p ... .nfo": 5803, "shark.week.2022.jackass.shark.week.2.0.1080p ...
创建时间: 2022-08-03 19:42:16 大小:4.75 GB 文件数量:5 热度:9 最近下载:2025-09-21 13:05:02
    {"RARBG.txt": 30, "RARBG_DO_NOT_MIRROR.exe": 99, "Jackass.The.Movie.2002.1080p.WEBRip.x265-RARBG.mp4": 1420850913}
创建时间: 2022-08-04 21:29:32 大小:1.32 GB 文件数量:3 热度:5 最近下载:2025-08-11 06:23:01
    {"RARBG.txt": 30, "RARBG_DO_NOT_MIRROR.exe": 99, "Jackass.The.Movie.2002.1080p.WEBRip.x264-RARBG.mp4": 1739693896}
创建时间: 2022-08-05 23:44:02 大小:1.62 GB 文件数量:3 热度:4 最近下载:2025-01-21 02:32:08
    {".pad": {"381925": 381925}, "WWW.YTS.RE.jpg": 110514, "Jackass.Presents.Bad.Grandpa..5.2014.1080p.BluRay.x264.YIFY.mp4": 1326591003}
创建时间: 2022-08-07 21:05:34 大小:1.24 GB 文件数量:3 热度:5 最近下载:2025-08-29 19:16:02
    {"Jackass Bonus.mkv": 738571823, "Jackass Volume 1.mkv": 1559403719, "Jackass Volume 2.mkv": 2039132938, "Jackass Volume 3.mkv": 1975196381}
创建时间: 2022-08-08 17:19:21 大小:5.88 GB 文件数量:4 热度:3 最近下载:2025-01-04 12:29:02